sensor_id;sensor_type;location;lat;lon;timestamp;P1;durP1;ratioP1;P2;durP2;ratioP2
41966;SDS011;27656;53.068;8.818;2023-03-11T00:00:09;7.37;;;3.00;;
41966;SDS011;27656;53.068;8.818;2023-03-11T00:02:39;6.93;;;2.67;;
41966;SDS011;27656;53.068;8.818;2023-03-11T00:05:06;4.27;;;2.77;;
41966;SDS011;27656;53.068;8.818;2023-03-11T00:07:33;4.17;;;2.60;;
41966;SDS011;27656;53.068;8.818;2023-03-11T00:10:00;5.87;;;2.50;;
41966;SDS011;27656;53.068;8.818;2023-03-11T00:12:26;5.17;;;2.10;;
41966;SDS011;27656;53.068;8.818;2023-03-11T00:14:53;3.90;;;2.07;;
41966;SDS011;27656;53.068;8.818;2023-03-11T00:17:19;4.37;;;2.43;;
41966;SDS011;27656;53.068;8.818;2023-03-11T00:19:45;6.83;;;3.93;;
41966;SDS011;27656;53.068;8.818;2023-03-11T00:22:12;7.73;;;5.30;;
41966;SDS011;27656;53.068;8.818;2023-03-11T00:24:38;7.73;;;5.33;;
41966;SDS011;27656;53.068;8.818;2023-03-11T00:27:05;8.90;;;4.70;;
41966;SDS011;27656;53.068;8.818;2023-03-11T00:29:31;8.93;;;4.50;;
41966;SDS011;27656;53.068;8.818;2023-03-11T00:31:58;7.13;;;4.53;;
41966;SDS011;27656;53.068;8.818;2023-03-11T00:34:24;9.53;;;4.80;;
41966;SDS011;27656;53.068;8.818;2023-03-11T00:36:51;8.47;;;4.13;;
41966;SDS011;27656;53.068;8.818;2023-03-11T00:39:17;9.67;;;3.80;;
41966;SDS011;27656;53.068;8.818;2023-03-11T00:41:43;9.83;;;4.40;;
41966;SDS011;27656;53.068;8.818;2023-03-11T00:44:10;7.73;;;3.57;;
41966;SDS011;27656;53.068;8.818;2023-03-11T00:46:37;10.20;;;3.70;;
41966;SDS011;27656;53.068;8.818;2023-03-11T00:49:04;8.57;;;3.50;;
41966;SDS011;27656;53.068;8.818;2023-03-11T00:51:31;9.90;;;4.10;;
41966;SDS011;27656;53.068;8.818;2023-03-11T00:53:59;8.03;;;3.30;;
41966;SDS011;27656;53.068;8.818;2023-03-11T00:56:26;6.40;;;3.57;;
41966;SDS011;27656;53.068;8.818;2023-03-11T00:58:52;8.77;;;3.30;;
41966;SDS011;27656;53.068;8.818;2023-03-11T01:01:19;5.90;;;3.07;;
41966;SDS011;27656;53.068;8.818;2023-03-11T01:03:46;8.20;;;3.17;;
41966;SDS011;27656;53.068;8.818;2023-03-11T01:06:12;6.20;;;2.97;;
41966;SDS011;27656;53.068;8.818;2023-03-11T01:08:39;5.13;;;2.40;;
41966;SDS011;27656;53.068;8.818;2023-03-11T01:11:05;5.87;;;3.20;;
41966;SDS011;27656;53.068;8.818;2023-03-11T01:13:33;6.83;;;2.60;;
41966;SDS011;27656;53.068;8.818;2023-03-11T01:16:00;9.37;;;4.00;;
41966;SDS011;27656;53.068;8.818;2023-03-11T01:18:27;5.10;;;2.60;;
41966;SDS011;27656;53.068;8.818;2023-03-11T01:20:54;6.03;;;2.57;;
41966;SDS011;27656;53.068;8.818;2023-03-11T01:23:20;7.70;;;2.57;;
41966;SDS011;27656;53.068;8.818;2023-03-11T01:25:47;4.17;;;2.23;;
41966;SDS011;27656;53.068;8.818;2023-03-11T01:28:13;4.93;;;1.97;;
41966;SDS011;27656;53.068;8.818;2023-03-11T01:30:40;5.07;;;1.70;;
41966;SDS011;27656;53.068;8.818;2023-03-11T01:33:09;5.10;;;1.37;;
41966;SDS011;27656;53.068;8.818;2023-03-11T01:35:39;3.03;;;1.40;;
41966;SDS011;27656;53.068;8.818;2023-03-11T01:38:07;3.47;;;1.87;;
41966;SDS011;27656;53.068;8.818;2023-03-11T01:40:39;2.30;;;1.40;;
41966;SDS011;27656;53.068;8.818;2023-03-11T01:46:22;2.30;;;1.40;;
41966;SDS011;27656;53.068;8.818;2023-03-11T01:48:55;4.50;;;1.77;;
41966;SDS011;27656;53.068;8.818;2023-03-11T01:51:26;4.77;;;1.80;;
41966;SDS011;27656;53.068;8.818;2023-03-11T01:53:55;2.33;;;1.70;;
41966;SDS011;27656;53.068;8.818;2023-03-11T01:56:22;3.87;;;2.07;;
41966;SDS011;27656;53.068;8.818;2023-03-11T01:58:49;5.90;;;2.13;;
41966;SDS011;27656;53.068;8.818;2023-03-11T02:01:18;6.60;;;1.90;;
41966;SDS011;27656;53.068;8.818;2023-03-11T02:03:45;3.67;;;2.07;;
41966;SDS011;27656;53.068;8.818;2023-03-11T02:06:14;9.97;;;2.37;;
41966;SDS011;27656;53.068;8.818;2023-03-11T02:08:42;6.03;;;2.20;;
41966;SDS011;27656;53.068;8.818;2023-03-11T02:11:10;4.23;;;1.70;;
41966;SDS011;27656;53.068;8.818;2023-03-11T02:13:40;2.90;;;1.40;;
41966;SDS011;27656;53.068;8.818;2023-03-11T02:16:07;9.73;;;2.17;;
41966;SDS011;27656;53.068;8.818;2023-03-11T02:18:34;5.77;;;1.77;;
41966;SDS011;27656;53.068;8.818;2023-03-11T02:21:06;7.20;;;1.67;;
41966;SDS011;27656;53.068;8.818;2023-03-11T02:23:46;6.27;;;1.60;;
41966;SDS011;27656;53.068;8.818;2023-03-11T02:26:20;7.80;;;1.53;;
41966;SDS011;27656;53.068;8.818;2023-03-11T02:29:27;6.77;;;1.50;;
41966;SDS011;27656;53.068;8.818;2023-03-11T02:31:54;8.73;;;1.50;;
41966;SDS011;27656;53.068;8.818;2023-03-11T02:34:25;9.43;;;1.87;;
41966;SDS011;27656;53.068;8.818;2023-03-11T02:36:56;6.13;;;1.97;;
41966;SDS011;27656;53.068;8.818;2023-03-11T02:39:38;7.90;;;2.00;;
41966;SDS011;27656;53.068;8.818;2023-03-11T02:42:13;9.77;;;2.00;;
41966;SDS011;27656;53.068;8.818;2023-03-11T02:44:43;10.03;;;1.80;;
41966;SDS011;27656;53.068;8.818;2023-03-11T02:47:11;12.90;;;2.20;;
41966;SDS011;27656;53.068;8.818;2023-03-11T02:49:38;7.73;;;2.03;;
41966;SDS011;27656;53.068;8.818;2023-03-11T02:52:05;7.47;;;2.13;;
41966;SDS011;27656;53.068;8.818;2023-03-11T02:54:31;11.37;;;2.63;;
41966;SDS011;27656;53.068;8.818;2023-03-11T02:56:58;8.17;;;2.53;;
41966;SDS011;27656;53.068;8.818;2023-03-11T02:59:25;6.57;;;1.83;;
41966;SDS011;27656;53.068;8.818;2023-03-11T03:01:51;9.50;;;1.77;;
41966;SDS011;27656;53.068;8.818;2023-03-11T03:04:17;12.00;;;1.83;;
41966;SDS011;27656;53.068;8.818;2023-03-11T03:06:44;6.37;;;1.50;;
41966;SDS011;27656;53.068;8.818;2023-03-11T03:09:10;7.63;;;2.03;;
41966;SDS011;27656;53.068;8.818;2023-03-11T03:11:37;6.67;;;1.40;;
41966;SDS011;27656;53.068;8.818;2023-03-11T03:14:03;6.83;;;1.80;;
41966;SDS011;27656;53.068;8.818;2023-03-11T03:16:29;5.53;;;1.67;;
41966;SDS011;27656;53.068;8.818;2023-03-11T03:18:56;9.67;;;1.73;;
41966;SDS011;27656;53.068;8.818;2023-03-11T03:21:22;6.97;;;1.83;;
41966;SDS011;27656;53.068;8.818;2023-03-11T03:23:49;7.90;;;1.57;;
41966;SDS011;27656;53.068;8.818;2023-03-11T03:26:15;4.67;;;1.63;;
41966;SDS011;27656;53.068;8.818;2023-03-11T03:28:42;5.50;;;1.20;;
41966;SDS011;27656;53.068;8.818;2023-03-11T03:31:09;8.87;;;1.57;;
41966;SDS011;27656;53.068;8.818;2023-03-11T03:33:36;2.97;;;1.30;;
41966;SDS011;27656;53.068;8.818;2023-03-11T03:36:10;4.13;;;1.63;;
41966;SDS011;27656;53.068;8.818;2023-03-11T03:38:38;7.40;;;2.50;;
41966;SDS011;27656;53.068;8.818;2023-03-11T03:41:04;7.20;;;1.93;;
41966;SDS011;27656;53.068;8.818;2023-03-11T03:43:31;7.07;;;1.70;;
41966;SDS011;27656;53.068;8.818;2023-03-11T03:45:58;7.83;;;1.70;;
41966;SDS011;27656;53.068;8.818;2023-03-11T03:48:26;14.50;;;2.23;;
41966;SDS011;27656;53.068;8.818;2023-03-11T03:50:53;6.30;;;1.73;;
41966;SDS011;27656;53.068;8.818;2023-03-11T03:53:20;6.10;;;2.13;;
41966;SDS011;27656;53.068;8.818;2023-03-11T03:55:47;9.50;;;1.77;;
41966;SDS011;27656;53.068;8.818;2023-03-11T03:58:15;6.90;;;1.67;;
41966;SDS011;27656;53.068;8.818;2023-03-11T04:00:42;8.50;;;1.63;;
41966;SDS011;27656;53.068;8.818;2023-03-11T04:03:08;8.73;;;1.63;;
41966;SDS011;27656;53.068;8.818;2023-03-11T04:05:35;9.13;;;1.53;;
41966;SDS011;27656;53.068;8.818;2023-03-11T04:08:01;7.40;;;1.67;;
41966;SDS011;27656;53.068;8.818;2023-03-11T04:10:28;8.37;;;1.50;;
41966;SDS011;27656;53.068;8.818;2023-03-11T04:12:54;8.07;;;1.70;;
41966;SDS011;27656;53.068;8.818;2023-03-11T04:15:20;8.17;;;1.93;;
41966;SDS011;27656;53.068;8.818;2023-03-11T04:17:47;3.47;;;1.70;;
41966;SDS011;27656;53.068;8.818;2023-03-11T04:20:13;5.90;;;1.93;;
41966;SDS011;27656;53.068;8.818;2023-03-11T04:22:40;6.93;;;2.17;;
41966;SDS011;27656;53.068;8.818;2023-03-11T04:25:06;9.50;;;2.67;;
41966;SDS011;27656;53.068;8.818;2023-03-11T04:27:33;9.10;;;2.27;;
41966;SDS011;27656;53.068;8.818;2023-03-11T04:29:59;10.63;;;3.00;;
41966;SDS011;27656;53.068;8.818;2023-03-11T04:32:26;8.83;;;2.50;;
41966;SDS011;27656;53.068;8.818;2023-03-11T04:34:52;6.97;;;2.50;;
41966;SDS011;27656;53.068;8.818;2023-03-11T04:37:19;9.50;;;2.60;;
41966;SDS011;27656;53.068;8.818;2023-03-11T04:39:45;7.53;;;2.90;;
41966;SDS011;27656;53.068;8.818;2023-03-11T04:42:11;10.17;;;2.53;;
41966;SDS011;27656;53.068;8.818;2023-03-11T04:44:39;11.33;;;2.80;;
41966;SDS011;27656;53.068;8.818;2023-03-11T04:47:05;9.67;;;2.77;;
41966;SDS011;27656;53.068;8.818;2023-03-11T04:49:32;11.53;;;3.53;;
41966;SDS011;27656;53.068;8.818;2023-03-11T04:51:58;5.73;;;2.43;;
41966;SDS011;27656;53.068;8.818;2023-03-11T04:54:24;7.23;;;3.10;;
41966;SDS011;27656;53.068;8.818;2023-03-11T04:56:51;8.97;;;2.70;;
41966;SDS011;27656;53.068;8.818;2023-03-11T04:59:17;12.07;;;3.10;;
41966;SDS011;27656;53.068;8.818;2023-03-11T05:01:44;15.03;;;3.20;;
41966;SDS011;27656;53.068;8.818;2023-03-11T05:04:10;9.27;;;2.83;;
41966;SDS011;27656;53.068;8.818;2023-03-11T05:06:37;10.63;;;2.93;;
41966;SDS011;27656;53.068;8.818;2023-03-11T05:09:04;10.67;;;2.27;;
41966;SDS011;27656;53.068;8.818;2023-03-11T05:11:31;6.97;;;1.80;;
41966;SDS011;27656;53.068;8.818;2023-03-11T05:13:57;5.67;;;1.50;;
41966;SDS011;27656;53.068;8.818;2023-03-11T05:16:23;8.33;;;1.60;;
41966;SDS011;27656;53.068;8.818;2023-03-11T05:18:50;6.97;;;1.60;;
41966;SDS011;27656;53.068;8.818;2023-03-11T05:21:16;8.53;;;1.60;;
41966;SDS011;27656;53.068;8.818;2023-03-11T05:23:43;6.53;;;1.40;;
41966;SDS011;27656;53.068;8.818;2023-03-11T05:26:10;6.40;;;1.70;;
41966;SDS011;27656;53.068;8.818;2023-03-11T05:28:37;3.03;;;1.40;;
41966;SDS011;27656;53.068;8.818;2023-03-11T05:31:06;3.83;;;1.27;;
41966;SDS011;27656;53.068;8.818;2023-03-11T05:33:34;6.00;;;1.30;;
41966;SDS011;27656;53.068;8.818;2023-03-11T05:36:04;4.83;;;1.30;;
41966;SDS011;27656;53.068;8.818;2023-03-11T05:38:31;5.50;;;1.47;;
41966;SDS011;27656;53.068;8.818;2023-03-11T05:40:57;3.43;;;1.23;;
41966;SDS011;27656;53.068;8.818;2023-03-11T05:43:24;4.43;;;1.23;;
41966;SDS011;27656;53.068;8.818;2023-03-11T05:45:50;3.30;;;1.17;;
41966;SDS011;27656;53.068;8.818;2023-03-11T05:48:17;4.27;;;1.53;;
41966;SDS011;27656;53.068;8.818;2023-03-11T05:50:43;8.27;;;1.27;;
41966;SDS011;27656;53.068;8.818;2023-03-11T05:53:09;7.73;;;1.67;;
41966;SDS011;27656;53.068;8.818;2023-03-11T05:55:36;4.17;;;1.20;;
41966;SDS011;27656;53.068;8.818;2023-03-11T05:58:02;7.77;;;1.20;;
41966;SDS011;27656;53.068;8.818;2023-03-11T06:00:29;8.83;;;1.33;;
41966;SDS011;27656;53.068;8.818;2023-03-11T06:02:55;6.70;;;1.37;;
41966;SDS011;27656;53.068;8.818;2023-03-11T06:05:22;6.10;;;1.67;;
41966;SDS011;27656;53.068;8.818;2023-03-11T06:07:48;7.53;;;1.10;;
41966;SDS011;27656;53.068;8.818;2023-03-11T06:10:15;5.90;;;1.10;;
41966;SDS011;27656;53.068;8.818;2023-03-11T06:12:41;5.23;;;1.30;;
41966;SDS011;27656;53.068;8.818;2023-03-11T06:15:08;3.47;;;1.30;;
41966;SDS011;27656;53.068;8.818;2023-03-11T06:17:36;3.33;;;1.00;;
41966;SDS011;27656;53.068;8.818;2023-03-11T06:20:02;5.70;;;1.40;;
41966;SDS011;27656;53.068;8.818;2023-03-11T06:22:30;8.47;;;1.23;;
41966;SDS011;27656;53.068;8.818;2023-03-11T06:24:57;6.30;;;1.20;;
41966;SDS011;27656;53.068;8.818;2023-03-11T06:27:23;3.80;;;1.10;;
41966;SDS011;27656;53.068;8.818;2023-03-11T06:29:53;5.73;;;1.60;;
41966;SDS011;27656;53.068;8.818;2023-03-11T06:32:19;6.93;;;1.77;;
41966;SDS011;27656;53.068;8.818;2023-03-11T06:34:49;4.43;;;1.40;;
41966;SDS011;27656;53.068;8.818;2023-03-11T06:37:17;2.67;;;1.50;;
41966;SDS011;27656;53.068;8.818;2023-03-11T06:39:44;8.80;;;1.17;;
41966;SDS011;27656;53.068;8.818;2023-03-11T06:42:10;3.10;;;1.20;;
41966;SDS011;27656;53.068;8.818;2023-03-11T06:44:37;4.30;;;1.23;;
41966;SDS011;27656;53.068;8.818;2023-03-11T06:47:03;6.10;;;1.63;;
41966;SDS011;27656;53.068;8.818;2023-03-11T06:49:30;6.13;;;1.10;;
41966;SDS011;27656;53.068;8.818;2023-03-11T06:51:56;5.10;;;1.10;;
41966;SDS011;27656;53.068;8.818;2023-03-11T06:54:23;5.80;;;1.53;;
41966;SDS011;27656;53.068;8.818;2023-03-11T06:56:49;4.27;;;1.40;;
41966;SDS011;27656;53.068;8.818;2023-03-11T06:59:16;5.80;;;1.87;;
41966;SDS011;27656;53.068;8.818;2023-03-11T07:01:42;7.50;;;1.67;;
41966;SDS011;27656;53.068;8.818;2023-03-11T07:04:09;4.83;;;1.20;;
41966;SDS011;27656;53.068;8.818;2023-03-11T07:06:35;7.73;;;1.50;;
41966;SDS011;27656;53.068;8.818;2023-03-11T07:09:02;9.00;;;1.97;;
41966;SDS011;27656;53.068;8.818;2023-03-11T07:11:28;11.03;;;1.47;;
41966;SDS011;27656;53.068;8.818;2023-03-11T07:13:55;2.90;;;1.30;;
41966;SDS011;27656;53.068;8.818;2023-03-11T07:16:22;3.20;;;1.10;;
41966;SDS011;27656;53.068;8.818;2023-03-11T07:18:50;3.03;;;1.07;;
41966;SDS011;27656;53.068;8.818;2023-03-11T07:21:20;5.17;;;1.50;;
41966;SDS011;27656;53.068;8.818;2023-03-11T07:23:50;3.77;;;1.20;;
41966;SDS011;27656;53.068;8.818;2023-03-11T07:26:21;5.27;;;1.20;;
41966;SDS011;27656;53.068;8.818;2023-03-11T07:28:48;5.27;;;1.20;;
41966;SDS011;27656;53.068;8.818;2023-03-11T07:31:16;10.33;;;1.57;;
41966;SDS011;27656;53.068;8.818;2023-03-11T07:33:43;7.07;;;1.30;;
41966;SDS011;27656;53.068;8.818;2023-03-11T07:36:12;8.20;;;1.43;;
41966;SDS011;27656;53.068;8.818;2023-03-11T07:38:40;5.93;;;1.30;;
41966;SDS011;27656;53.068;8.818;2023-03-11T07:41:07;6.27;;;1.50;;
41966;SDS011;27656;53.068;8.818;2023-03-11T07:43:36;3.90;;;1.20;;
41966;SDS011;27656;53.068;8.818;2023-03-11T07:46:04;5.73;;;1.87;;
41966;SDS011;27656;53.068;8.818;2023-03-11T07:48:30;5.17;;;1.73;;
41966;SDS011;27656;53.068;8.818;2023-03-11T07:51:01;6.17;;;1.40;;
41966;SDS011;27656;53.068;8.818;2023-03-11T07:53:28;3.87;;;1.40;;
41966;SDS011;27656;53.068;8.818;2023-03-11T07:55:55;6.73;;;1.67;;
41966;SDS011;27656;53.068;8.818;2023-03-11T07:58:22;3.70;;;1.60;;
41966;SDS011;27656;53.068;8.818;2023-03-11T08:00:50;3.30;;;1.53;;
41966;SDS011;27656;53.068;8.818;2023-03-11T08:03:16;8.20;;;1.70;;
41966;SDS011;27656;53.068;8.818;2023-03-11T08:05:43;6.13;;;1.57;;
41966;SDS011;27656;53.068;8.818;2023-03-11T08:08:09;4.20;;;1.40;;
41966;SDS011;27656;53.068;8.818;2023-03-11T08:10:36;7.40;;;1.70;;
41966;SDS011;27656;53.068;8.818;2023-03-11T08:13:03;5.73;;;1.70;;
41966;SDS011;27656;53.068;8.818;2023-03-11T08:15:29;4.47;;;1.83;;
41966;SDS011;27656;53.068;8.818;2023-03-11T08:17:56;7.00;;;1.90;;
41966;SDS011;27656;53.068;8.818;2023-03-11T08:20:23;4.23;;;1.80;;
41966;SDS011;27656;53.068;8.818;2023-03-11T08:22:49;4.17;;;1.80;;
41966;SDS011;27656;53.068;8.818;2023-03-11T08:25:23;4.50;;;1.50;;
41966;SDS011;27656;53.068;8.818;2023-03-11T08:27:50;8.20;;;1.57;;
41966;SDS011;27656;53.068;8.818;2023-03-11T08:30:17;7.07;;;1.60;;
41966;SDS011;27656;53.068;8.818;2023-03-11T08:32:43;4.40;;;1.50;;
41966;SDS011;27656;53.068;8.818;2023-03-11T08:35:10;5.80;;;1.50;;
41966;SDS011;27656;53.068;8.818;2023-03-11T08:37:36;4.43;;;1.60;;
41966;SDS011;27656;53.068;8.818;2023-03-11T08:40:03;3.13;;;1.63;;
41966;SDS011;27656;53.068;8.818;2023-03-11T08:42:30;6.93;;;1.70;;
41966;SDS011;27656;53.068;8.818;2023-03-11T08:44:56;2.63;;;1.30;;
41966;SDS011;27656;53.068;8.818;2023-03-11T08:47:23;2.70;;;1.70;;
41966;SDS011;27656;53.068;8.818;2023-03-11T08:49:49;5.27;;;1.83;;
41966;SDS011;27656;53.068;8.818;2023-03-11T08:52:15;2.93;;;1.40;;
41966;SDS011;27656;53.068;8.818;2023-03-11T08:54:42;6.63;;;1.60;;
41966;SDS011;27656;53.068;8.818;2023-03-11T08:57:08;11.23;;;1.80;;
41966;SDS011;27656;53.068;8.818;2023-03-11T08:59:35;5.47;;;1.97;;
41966;SDS011;27656;53.068;8.818;2023-03-11T09:02:01;4.03;;;1.53;;
41966;SDS011;27656;53.068;8.818;2023-03-11T09:04:28;5.07;;;1.80;;
41966;SDS011;27656;53.068;8.818;2023-03-11T09:06:54;6.03;;;1.90;;
41966;SDS011;27656;53.068;8.818;2023-03-11T09:09:21;5.60;;;2.00;;
41966;SDS011;27656;53.068;8.818;2023-03-11T09:11:47;5.17;;;1.67;;
41966;SDS011;27656;53.068;8.818;2023-03-11T09:14:14;7.63;;;1.57;;
41966;SDS011;27656;53.068;8.818;2023-03-11T09:16:41;5.90;;;1.70;;
41966;SDS011;27656;53.068;8.818;2023-03-11T09:19:07;7.20;;;1.63;;
41966;SDS011;27656;53.068;8.818;2023-03-11T09:21:34;3.50;;;1.50;;
41966;SDS011;27656;53.068;8.818;2023-03-11T09:24:01;6.97;;;1.50;;
41966;SDS011;27656;53.068;8.818;2023-03-11T09:26:29;7.57;;;1.77;;
41966;SDS011;27656;53.068;8.818;2023-03-11T09:28:56;5.40;;;1.80;;
41966;SDS011;27656;53.068;8.818;2023-03-11T09:31:23;6.20;;;1.67;;
41966;SDS011;27656;53.068;8.818;2023-03-11T09:33:49;9.83;;;2.17;;
41966;SDS011;27656;53.068;8.818;2023-03-11T09:36:18;4.13;;;1.63;;
41966;SDS011;27656;53.068;8.818;2023-03-11T09:38:46;4.80;;;1.70;;
41966;SDS011;27656;53.068;8.818;2023-03-11T09:43:51;5.10;;;1.43;;
41966;SDS011;27656;53.068;8.818;2023-03-11T09:49:12;6.90;;;1.70;;
41966;SDS011;27656;53.068;8.818;2023-03-11T09:51:44;6.63;;;1.83;;
41966;SDS011;27656;53.068;8.818;2023-03-11T09:54:12;9.33;;;1.93;;
41966;SDS011;27656;53.068;8.818;2023-03-11T09:56:39;4.07;;;1.30;;
41966;SDS011;27656;53.068;8.818;2023-03-11T09:59:14;6.43;;;1.60;;
41966;SDS011;27656;53.068;8.818;2023-03-11T10:01:44;7.97;;;1.77;;
41966;SDS011;27656;53.068;8.818;2023-03-11T10:04:13;7.37;;;2.13;;
41966;SDS011;27656;53.068;8.818;2023-03-11T10:06:43;9.03;;;1.73;;
41966;SDS011;27656;53.068;8.818;2023-03-11T10:11:42;8.37;;;1.60;;
41966;SDS011;27656;53.068;8.818;2023-03-11T10:25:57;4.40;;;1.87;;
41966;SDS011;27656;53.068;8.818;2023-03-11T10:28:32;6.47;;;1.87;;
41966;SDS011;27656;53.068;8.818;2023-03-11T10:31:04;6.10;;;1.90;;
41966;SDS011;27656;53.068;8.818;2023-03-11T10:33:43;7.73;;;1.60;;
41966;SDS011;27656;53.068;8.818;2023-03-11T10:36:14;10.97;;;1.60;;
41966;SDS011;27656;53.068;8.818;2023-03-11T10:38:50;2.70;;;1.27;;
41966;SDS011;27656;53.068;8.818;2023-03-11T10:41:38;5.30;;;1.50;;
41966;SDS011;27656;53.068;8.818;2023-03-11T10:44:20;7.00;;;1.63;;
41966;SDS011;27656;53.068;8.818;2023-03-11T10:46:53;8.17;;;1.80;;
41966;SDS011;27656;53.068;8.818;2023-03-11T10:49:20;4.13;;;2.10;;
41966;SDS011;27656;53.068;8.818;2023-03-11T10:51:48;9.53;;;2.03;;
41966;SDS011;27656;53.068;8.818;2023-03-11T10:54:35;3.90;;;1.37;;
41966;SDS011;27656;53.068;8.818;2023-03-11T10:59:48;6.13;;;1.50;;
41966;SDS011;27656;53.068;8.818;2023-03-11T11:02:26;3.50;;;1.40;;
41966;SDS011;27656;53.068;8.818;2023-03-11T11:05:06;4.47;;;1.53;;
41966;SDS011;27656;53.068;8.818;2023-03-11T11:07:34;3.70;;;1.53;;
41966;SDS011;27656;53.068;8.818;2023-03-11T11:10:12;4.83;;;1.23;;
41966;SDS011;27656;53.068;8.818;2023-03-11T11:13:14;5.33;;;1.40;;
41966;SDS011;27656;53.068;8.818;2023-03-11T11:16:29;4.60;;;1.40;;
41966;SDS011;27656;53.068;8.818;2023-03-11T11:18:44;4.57;;;1.40;;
41966;SDS011;27656;53.068;8.818;2023-03-11T11:23:42;7.73;;;2.33;;
41966;SDS011;27656;53.068;8.818;2023-03-11T11:26:13;7.13;;;1.97;;
41966;SDS011;27656;53.068;8.818;2023-03-11T11:28:42;3.83;;;1.43;;
41966;SDS011;27656;53.068;8.818;2023-03-11T11:31:22;5.97;;;1.70;;
41966;SDS011;27656;53.068;8.818;2023-03-11T11:33:53;9.17;;;2.67;;
41966;SDS011;27656;53.068;8.818;2023-03-11T11:36:22;3.53;;;1.30;;
41966;SDS011;27656;53.068;8.818;2023-03-11T11:38:53;6.17;;;1.67;;
41966;SDS011;27656;53.068;8.818;2023-03-11T11:41:21;4.37;;;1.20;;
41966;SDS011;27656;53.068;8.818;2023-03-11T11:43:50;11.13;;;1.70;;
41966;SDS011;27656;53.068;8.818;2023-03-11T11:49:25;7.63;;;1.40;;
41966;SDS011;27656;53.068;8.818;2023-03-11T11:51:55;4.47;;;1.17;;
41966;SDS011;27656;53.068;8.818;2023-03-11T11:54:27;5.10;;;0.93;;
41966;SDS011;27656;53.068;8.818;2023-03-11T11:56:58;5.63;;;1.23;;
41966;SDS011;27656;53.068;8.818;2023-03-11T11:59:26;5.97;;;1.00;;
41966;SDS011;27656;53.068;8.818;2023-03-11T12:01:59;8.10;;;1.20;;
41966;SDS011;27656;53.068;8.818;2023-03-11T12:04:30;8.97;;;1.50;;
41966;SDS011;27656;53.068;8.818;2023-03-11T12:07:06;14.73;;;1.57;;
41966;SDS011;27656;53.068;8.818;2023-03-11T12:12:33;5.97;;;1.00;;
41966;SDS011;27656;53.068;8.818;2023-03-11T12:17:49;6.70;;;1.47;;
41966;SDS011;27656;53.068;8.818;2023-03-11T12:23:10;3.73;;;1.43;;
41966;SDS011;27656;53.068;8.818;2023-03-11T12:28:43;5.90;;;1.40;;
41966;SDS011;27656;53.068;8.818;2023-03-11T12:31:13;2.30;;;1.10;;
41966;SDS011;27656;53.068;8.818;2023-03-11T12:33:41;5.60;;;1.43;;
41966;SDS011;27656;53.068;8.818;2023-03-11T12:36:28;5.63;;;1.40;;
41966;SDS011;27656;53.068;8.818;2023-03-11T12:38:57;12.40;;;1.40;;
41966;SDS011;27656;53.068;8.818;2023-03-11T12:41:26;5.17;;;1.13;;
41966;SDS011;27656;53.068;8.818;2023-03-11T12:43:58;3.07;;;1.20;;
41966;SDS011;27656;53.068;8.818;2023-03-11T12:49:32;9.30;;;1.40;;
41966;SDS011;27656;53.068;8.818;2023-03-11T12:52:02;5.93;;;1.40;;
41966;SDS011;27656;53.068;8.818;2023-03-11T12:54:39;3.33;;;1.03;;
41966;SDS011;27656;53.068;8.818;2023-03-11T13:05:47;7.83;;;1.20;;
41966;SDS011;27656;53.068;8.818;2023-03-11T13:14:08;6.20;;;1.17;;
41966;SDS011;27656;53.068;8.818;2023-03-11T13:16:41;5.30;;;1.27;;
41966;SDS011;27656;53.068;8.818;2023-03-11T13:21:57;6.30;;;1.53;;
41966;SDS011;27656;53.068;8.818;2023-03-11T13:38:19;3.30;;;1.00;;
41966;SDS011;27656;53.068;8.818;2023-03-11T13:41:00;4.70;;;1.00;;
41966;SDS011;27656;53.068;8.818;2023-03-11T13:43:28;2.57;;;1.03;;
41966;SDS011;27656;53.068;8.818;2023-03-11T13:45:59;7.53;;;1.27;;
41966;SDS011;27656;53.068;8.818;2023-03-11T13:51:06;4.93;;;1.00;;
41966;SDS011;27656;53.068;8.818;2023-03-11T13:53:43;6.13;;;1.40;;
41966;SDS011;27656;53.068;8.818;2023-03-11T13:56:16;4.83;;;1.30;;
41966;SDS011;27656;53.068;8.818;2023-03-11T13:58:44;1.80;;;0.87;;
41966;SDS011;27656;53.068;8.818;2023-03-11T14:01:13;2.30;;;1.00;;
41966;SDS011;27656;53.068;8.818;2023-03-11T14:03:41;5.97;;;1.30;;
41966;SDS011;27656;53.068;8.818;2023-03-11T14:06:13;9.30;;;1.00;;
41966;SDS011;27656;53.068;8.818;2023-03-11T14:08:55;4.63;;;1.10;;
41966;SDS011;27656;53.068;8.818;2023-03-11T14:11:26;5.83;;;1.50;;
41966;SDS011;27656;53.068;8.818;2023-03-11T14:13:54;3.50;;;1.00;;
41966;SDS011;27656;53.068;8.818;2023-03-11T14:16:31;4.73;;;1.00;;
41966;SDS011;27656;53.068;8.818;2023-03-11T14:19:15;6.90;;;0.90;;
41966;SDS011;27656;53.068;8.818;2023-03-11T14:21:43;5.77;;;1.10;;
41966;SDS011;27656;53.068;8.818;2023-03-11T14:24:24;5.13;;;1.37;;
41966;SDS011;27656;53.068;8.818;2023-03-11T14:26:53;2.50;;;1.00;;
41966;SDS011;27656;53.068;8.818;2023-03-11T14:29:29;4.60;;;1.10;;
41966;SDS011;27656;53.068;8.818;2023-03-11T14:31:57;3.77;;;1.00;;
41966;SDS011;27656;53.068;8.818;2023-03-11T14:34:25;7.00;;;1.60;;
41966;SDS011;27656;53.068;8.818;2023-03-11T14:36:54;6.33;;;1.37;;
41966;SDS011;27656;53.068;8.818;2023-03-11T14:39:23;6.87;;;1.23;;
41966;SDS011;27656;53.068;8.818;2023-03-11T14:41:52;3.10;;;1.50;;
41966;SDS011;27656;53.068;8.818;2023-03-11T14:44:20;6.13;;;1.20;;
41966;SDS011;27656;53.068;8.818;2023-03-11T14:46:48;4.37;;;1.40;;
41966;SDS011;27656;53.068;8.818;2023-03-11T14:49:15;4.30;;;0.77;;
41966;SDS011;27656;53.068;8.818;2023-03-11T14:51:45;2.70;;;0.90;;
41966;SDS011;27656;53.068;8.818;2023-03-11T14:54:21;3.23;;;1.10;;
41966;SDS011;27656;53.068;8.818;2023-03-11T14:56:54;5.17;;;1.10;;
41966;SDS011;27656;53.068;8.818;2023-03-11T14:59:27;4.27;;;1.40;;
41966;SDS011;27656;53.068;8.818;2023-03-11T15:01:58;8.83;;;0.93;;
41966;SDS011;27656;53.068;8.818;2023-03-11T15:04:48;6.67;;;1.23;;
41966;SDS011;27656;53.068;8.818;2023-03-11T15:07:18;3.20;;;1.00;;
41966;SDS011;27656;53.068;8.818;2023-03-11T15:09:45;2.73;;;0.93;;
41966;SDS011;27656;53.068;8.818;2023-03-11T15:12:31;7.40;;;1.13;;
41966;SDS011;27656;53.068;8.818;2023-03-11T15:14:59;8.57;;;1.37;;
41966;SDS011;27656;53.068;8.818;2023-03-11T15:17:26;7.57;;;1.40;;
41966;SDS011;27656;53.068;8.818;2023-03-11T15:23:03;5.37;;;1.07;;
41966;SDS011;27656;53.068;8.818;2023-03-11T15:25:31;3.63;;;1.53;;
41966;SDS011;27656;53.068;8.818;2023-03-11T15:28:13;3.60;;;1.27;;
41966;SDS011;27656;53.068;8.818;2023-03-11T15:30:45;7.10;;;1.10;;
41966;SDS011;27656;53.068;8.818;2023-03-11T15:33:30;7.23;;;1.30;;
41966;SDS011;27656;53.068;8.818;2023-03-11T15:35:58;11.00;;;1.13;;
41966;SDS011;27656;53.068;8.818;2023-03-11T15:38:25;6.60;;;1.30;;
41966;SDS011;27656;53.068;8.818;2023-03-11T15:40:57;5.60;;;1.30;;
41966;SDS011;27656;53.068;8.818;2023-03-11T15:43:27;5.87;;;1.30;;
41966;SDS011;27656;53.068;8.818;2023-03-11T15:45:56;3.77;;;1.17;;
41966;SDS011;27656;53.068;8.818;2023-03-11T15:48:23;6.27;;;1.40;;
41966;SDS011;27656;53.068;8.818;2023-03-11T15:50:50;6.97;;;1.40;;
41966;SDS011;27656;53.068;8.818;2023-03-11T15:53:20;2.93;;;1.40;;
41966;SDS011;27656;53.068;8.818;2023-03-11T15:55:48;5.43;;;1.37;;
41966;SDS011;27656;53.068;8.818;2023-03-11T15:58:15;6.37;;;1.67;;
41966;SDS011;27656;53.068;8.818;2023-03-11T16:00:50;5.03;;;1.60;;
41966;SDS011;27656;53.068;8.818;2023-03-11T16:03:18;4.50;;;1.37;;
41966;SDS011;27656;53.068;8.818;2023-03-11T16:05:45;6.07;;;1.40;;
41966;SDS011;27656;53.068;8.818;2023-03-11T16:08:11;4.17;;;1.20;;
41966;SDS011;27656;53.068;8.818;2023-03-11T16:10:38;4.27;;;1.30;;
41966;SDS011;27656;53.068;8.818;2023-03-11T16:13:05;4.90;;;1.40;;
41966;SDS011;27656;53.068;8.818;2023-03-11T16:15:32;5.03;;;1.40;;
41966;SDS011;27656;53.068;8.818;2023-03-11T16:18:01;5.03;;;1.40;;
41966;SDS011;27656;53.068;8.818;2023-03-11T16:20:35;6.63;;;1.23;;